Time;durP1;ratioP1;P1;durP2;ratioP2;P2;SDS_P1;SDS_P2;PMS_P1;PMS_P2;Temp;Humidity;BMP_temperature;BMP_pressure;BME280_temperature;BME280_humidity;BME280_pressure;Samples;Min_cycle;Max_cycle;Signal;HPM_P1;HPM_P2
2021/12/16 00:09:22;;;;;;;47.35;7.00;;;;;;;;;;5060308;28;20141;-62
2021/12/16 00:34:04;;;;;;;46.72;6.15;;;;;;;;;;5056155;28;20072;-63
2021/12/16 00:36:31;;;;;;;;;;;;;;;;;;5056842;28;20053;-63
2021/12/16 00:38:58;;;;;;;37.70;5.63;;;;;;;;;;5059292;28;19982;-63
2021/12/16 00:41:25;;;;;;;39.00;5.70;;;;;;;;;;5060230;28;20045;-63
2021/12/16 00:44:04;;;;;;;53.15;5.70;;;;;;;;;;5059372;28;20457;-62
2021/12/16 00:49:19;;;;;;;48.75;5.30;;;;;;;;;;5059692;28;20090;-62
2021/12/16 00:54:40;;;;;;;39.38;5.78;;;;;;;;;;5057292;28;20059;-62
2021/12/16 00:57:12;;;;;;;47.67;6.15;;;;;;;;;;5056166;28;20084;-63
2021/12/16 00:59:43;;;;;;;41.13;5.25;;;;;;;;;;5058821;28;20722;-62
2021/12/16 01:02:27;;;;;;;33.35;4.65;;;;;;;;;;5060310;28;20053;-62
2021/12/16 01:07:59;;;;;;;34.03;5.50;;;;;;;;;;5055848;28;20083;-62
2021/12/16 01:57:16;;;;;;;38.38;5.95;;;;;;;;;;5081414;28;20134;-62
2021/12/16 01:59:46;;;;;;;22.45;4.00;;;;;;;;;;5083446;28;20040;-62
2021/12/16 02:05:33;;;;;;;40.08;4.57;;;;;;;;;;5084213;28;20078;-62
2021/12/16 02:10:38;;;;;;;40.05;6.13;;;;;;;;;;5073963;28;20518;-62
2021/12/16 02:27:26;;;;;;;32.83;4.43;;;;;;;;;;5073477;28;20127;-62
2021/12/16 02:32:51;;;;;;;43.15;5.15;;;;;;;;;;5073197;28;20051;-62
2021/12/16 02:35:42;;;;;;;45.15;7.05;;;;;;;;;;5061505;28;20559;-62
2021/12/16 02:38:11;;;;;;;56.40;6.50;;;;;;;;;;5061091;28;20095;-62
2021/12/16 02:40:39;;;;;;;54.65;6.35;;;;;;;;;;5060763;28;20119;-62
2021/12/16 02:48:30;;;;;;;37.08;4.95;;;;;;;;;;5060003;28;20049;-62
2021/12/16 02:50:59;;;;;;;39.63;5.20;;;;;;;;;;5059601;28;20140;-62
2021/12/16 02:53:25;;;;;;;49.75;5.70;;;;;;;;;;5060545;28;20483;-62
2021/12/16 02:55:59;;;;;;;46.00;6.80;;;;;;;;;;5063691;28;20072;-62
2021/12/16 02:58:25;;;;;;;47.90;5.93;;;;;;;;;;5062178;28;20113;-62
2021/12/16 03:01:01;;;;;;;45.90;5.90;;;;;;;;;;5057118;28;20144;-62
2021/12/16 03:03:29;;;;;;;45.13;6.40;;;;;;;;;;5056603;28;20061;-62
2021/12/16 03:05:55;;;;;;;51.03;6.25;;;;;;;;;;5058677;28;20206;-62
2021/12/16 03:08:23;;;;;;;46.78;6.45;;;;;;;;;;5057694;28;20580;-62
2021/12/16 03:11:05;;;;;;;;;;;;;;;;;;5061716;28;20128;-62
2021/12/16 03:13:37;;;;;;;47.92;5.22;;;;;;;;;;5062158;28;20073;-62
2021/12/16 03:16:33;;;;;;;47.22;6.72;;;;;;;;;;5057417;28;20135;-62
2021/12/16 03:19:12;;;;;;;36.42;4.35;;;;;;;;;;5054711;28;20139;-62
2021/12/16 03:21:44;;;;;;;56.38;6.30;;;;;;;;;;5062644;28;20128;-62
2021/12/16 03:34:56;;;;;;;56.47;6.35;;;;;;;;;;5058629;28;20077;-62
2021/12/16 03:37:30;;;;;;;53.63;5.63;;;;;;;;;;5048695;28;20049;-62
2021/12/16 03:40:05;;;;;;;62.67;7.47;;;;;;;;;;5038268;28;20623;-62
2021/12/16 03:42:37;;;;;;;53.65;6.15;;;;;;;;;;5039063;28;20081;-62
2021/12/16 03:46:24;;;;;;;41.05;5.68;;;;;;;;;;5043171;28;20453;-62
2021/12/16 03:47:56;;;;;;;54.95;7.25;;;;;;;;;;5038039;28;20424;-62
2021/12/16 03:50:22;;;;;;;46.83;6.33;;;;;;;;;;5041212;28;20473;-62
2021/12/16 03:52:49;;;;;;;41.90;5.90;;;;;;;;;;5037593;28;20520;-62
2021/12/16 03:55:17;;;;;;;49.17;6.40;;;;;;;;;;5037543;28;20723;-62
2021/12/16 03:57:44;;;;;;;50.20;5.65;;;;;;;;;;5037152;28;20600;-62
2021/12/16 04:00:13;;;;;;;33.63;4.87;;;;;;;;;;5037729;28;20163;-62
2021/12/16 04:02:40;;;;;;;49.92;6.00;;;;;;;;;;5027147;28;20536;-62
2021/12/16 04:05:08;;;;;;;48.58;6.07;;;;;;;;;;5036288;28;20065;-62
2021/12/16 04:07:35;;;;;;;54.38;7.05;;;;;;;;;;5042399;28;20515;-62
2021/12/16 04:10:04;;;;;;;39.25;4.75;;;;;;;;;;5037892;28;20132;-62
2021/12/16 04:12:31;;;;;;;57.70;7.20;;;;;;;;;;5039175;28;20140;-62
2021/12/16 04:14:59;;;;;;;58.45;5.53;;;;;;;;;;5040066;28;20140;-62
2021/12/16 04:17:26;;;;;;;40.40;5.53;;;;;;;;;;5041070;28;20083;-62
2021/12/16 04:19:53;;;;;;;43.38;5.45;;;;;;;;;;5036938;28;20140;-62
2021/12/16 04:22:28;;;;;;;50.83;6.78;;;;;;;;;;5037522;28;20074;-62
2021/12/16 04:24:56;;;;;;;57.85;5.55;;;;;;;;;;5036816;28;20040;-62
2021/12/16 04:27:23;;;;;;;48.38;6.68;;;;;;;;;;5036885;28;20057;-62
2021/12/16 04:29:49;;;;;;;58.38;7.30;;;;;;;;;;5041338;28;20136;-62
2021/12/16 04:32:23;;;;;;;44.63;6.80;;;;;;;;;;5038682;28;20083;-62
2021/12/16 04:34:49;;;;;;;62.87;6.93;;;;;;;;;;5037096;28;20095;-62
2021/12/16 04:37:16;;;;;;;53.80;7.20;;;;;;;;;;5044570;28;20147;-62
2021/12/16 04:39:44;;;;;;;48.88;5.55;;;;;;;;;;5060545;28;20089;-62
2021/12/16 04:42:13;;;;;;;65.07;6.70;;;;;;;;;;5057683;28;20080;-62
2021/12/16 04:44:41;;;;;;;46.13;5.47;;;;;;;;;;5055048;28;20136;-62
2021/12/16 04:47:08;;;;;;;54.80;6.55;;;;;;;;;;5058851;28;20136;-62
2021/12/16 04:49:35;;;;;;;59.50;6.75;;;;;;;;;;5061996;28;20053;-62
2021/12/16 04:52:04;;;;;;;63.53;6.32;;;;;;;;;;5056038;28;20135;-62
2021/12/16 04:54:31;;;;;;;60.78;7.68;;;;;;;;;;5060156;28;20047;-62
2021/12/16 04:56:58;;;;;;;49.63;7.25;;;;;;;;;;5057031;28;20135;-62
2021/12/16 04:59:25;;;;;;;49.58;5.90;;;;;;;;;;5057834;28;20145;-62
2021/12/16 05:02:10;;;;;;;51.25;6.72;;;;;;;;;;5060025;28;20563;-62
2021/12/16 05:04:36;;;;;;;51.30;6.43;;;;;;;;;;5060324;28;20128;-62
2021/12/16 05:07:10;;;;;;;43.42;5.63;;;;;;;;;;5061932;28;20167;-62
2021/12/16 05:12:05;;;;;;;47.10;5.75;;;;;;;;;;5061663;28;20140;-62
2021/12/16 05:14:34;;;;;;;50.10;6.70;;;;;;;;;;5060193;28;20139;-62
2021/12/16 05:17:03;;;;;;;42.92;6.55;;;;;;;;;;5059864;28;20135;-62
2021/12/16 05:19:29;;;;;;;56.45;6.40;;;;;;;;;;5064127;28;20149;-62
2021/12/16 05:24:50;;;;;;;48.55;6.40;;;;;;;;;;5058230;28;20124;-62
2021/12/16 05:27:19;;;;;;;61.50;6.43;;;;;;;;;;5062487;28;20928;-63
2021/12/16 05:29:46;;;;;;;67.53;8.18;;;;;;;;;;5059169;28;20118;-62
2021/12/16 05:32:12;;;;;;;48.25;6.97;;;;;;;;;;5062029;28;20052;-62
2021/12/16 05:34:40;;;;;;;57.75;7.13;;;;;;;;;;5063183;28;20144;-62
2021/12/16 05:37:08;;;;;;;55.80;6.47;;;;;;;;;;5058797;28;20076;-62
2021/12/16 05:39:35;;;;;;;55.42;6.97;;;;;;;;;;5060474;28;20080;-62
2021/12/16 05:42:01;;;;;;;42.40;6.00;;;;;;;;;;5055355;28;20526;-62
2021/12/16 05:44:28;;;;;;;53.05;5.95;;;;;;;;;;5059242;28;20077;-62
2021/12/16 05:46:54;;;;;;;44.45;5.20;;;;;;;;;;5061052;28;21879;-62
2021/12/16 05:49:28;;;;;;;41.92;5.80;;;;;;;;;;5062904;28;20135;-62
2021/12/16 05:51:54;;;;;;;53.20;7.05;;;;;;;;;;5059823;28;20064;-62
2021/12/16 05:54:21;;;;;;;53.35;7.53;;;;;;;;;;5060334;28;20135;-62
2021/12/16 05:56:48;;;;;;;46.42;6.47;;;;;;;;;;5061446;28;20102;-62
2021/12/16 05:59:17;;;;;;;57.00;7.72;;;;;;;;;;5060650;28;20130;-62
2021/12/16 06:01:46;;;;;;;52.40;7.13;;;;;;;;;;5066234;28;20140;-62
2021/12/16 06:04:20;;;;;;;43.65;5.68;;;;;;;;;;5062847;28;20484;-62
2021/12/16 06:06:47;;;;;;;43.33;5.68;;;;;;;;;;5063338;28;20087;-62
2021/12/16 06:09:13;;;;;;;46.90;6.25;;;;;;;;;;5063221;28;20385;-62
2021/12/16 06:11:43;;;;;;;49.50;6.13;;;;;;;;;;5057196;28;20080;-62
2021/12/16 06:14:21;;;;;;;47.42;6.63;;;;;;;;;;5044582;28;20139;-62
2021/12/16 06:28:05;;;;;;;41.03;5.32;;;;;;;;;;5055029;28;20511;-62
2021/12/16 06:30:33;;;;;;;37.80;5.80;;;;;;;;;;5055978;28;20140;-62
2021/12/16 06:33:01;;;;;;;44.28;6.10;;;;;;;;;;5056503;28;20080;-62
2021/12/16 06:35:30;;;;;;;39.05;6.00;;;;;;;;;;5058819;28;20140;-62
2021/12/16 06:37:57;;;;;;;35.58;5.43;;;;;;;;;;5061298;28;20225;-62
2021/12/16 06:40:23;;;;;;;45.58;6.57;;;;;;;;;;5053841;28;20080;-62
2021/12/16 06:42:53;;;;;;;33.00;5.57;;;;;;;;;;5059486;28;20155;-62
2021/12/16 06:45:25;;;;;;;43.13;6.10;;;;;;;;;;5058867;28;20049;-63
2021/12/16 06:47:59;;;;;;;45.65;5.18;;;;;;;;;;5063797;28;20087;-62
2021/12/16 06:50:39;;;;;;;43.92;5.85;;;;;;;;;;5062321;28;20471;-62
2021/12/16 06:53:11;;;;;;;38.85;6.80;;;;;;;;;;5060982;28;20131;-62
2021/12/16 06:58:36;;;;;;;40.20;6.38;;;;;;;;;;5057718;28;20599;-62
2021/12/16 07:01:19;;;;;;;42.83;6.18;;;;;;;;;;5061128;28;20087;-62
2021/12/16 07:03:52;;;;;;;44.65;5.80;;;;;;;;;;5061451;28;20131;-62
2021/12/16 07:06:21;;;;;;;37.85;6.25;;;;;;;;;;5068142;28;20043;-62
2021/12/16 07:08:52;;;;;;;52.83;7.57;;;;;;;;;;5055726;28;20056;-62
2021/12/16 07:11:25;;;;;;;40.38;5.75;;;;;;;;;;5059226;28;20131;-62
2021/12/16 07:14:00;;;;;;;47.10;6.63;;;;;;;;;;5053391;28;20075;-62
2021/12/16 07:16:28;;;;;;;44.30;6.18;;;;;;;;;;5061615;28;20055;-62
2021/12/16 07:18:55;;;;;;;41.47;5.82;;;;;;;;;;5063439;28;20083;-62
2021/12/16 07:21:23;;;;;;;46.67;6.78;;;;;;;;;;5058189;28;20044;-62
2021/12/16 07:23:49;;;;;;;;;;;;;;;;;;5056328;28;20059;-62
2021/12/16 07:26:16;;;;;;;42.30;5.85;;;;;;;;;;5063357;28;20395;-62
2021/12/16 07:28:42;;;;;;;40.13;6.85;;;;;;;;;;5060998;28;20135;-62
2021/12/16 07:31:09;;;;;;;47.20;5.72;;;;;;;;;;5057547;28;20057;-62
2021/12/16 07:33:35;;;;;;;43.42;5.28;;;;;;;;;;5062855;28;20059;-62
2021/12/16 07:36:02;;;;;;;51.08;7.38;;;;;;;;;;5060174;28;20124;-62
2021/12/16 07:38:37;;;;;;;48.05;5.78;;;;;;;;;;5055708;28;20091;-62
2021/12/16 07:41:04;;;;;;;42.55;6.85;;;;;;;;;;5057928;28;20140;-63
2021/12/16 07:46:27;;;;;;;54.00;6.95;;;;;;;;;;5059979;28;20131;-62
2021/12/16 07:48:54;;;;;;;44.97;6.23;;;;;;;;;;5056023;28;20132;-62
2021/12/16 07:51:20;;;;;;;46.28;6.18;;;;;;;;;;5058672;28;20369;-61
2021/12/16 07:53:48;;;;;;;50.95;7.10;;;;;;;;;;5061096;28;20091;-62
2021/12/16 07:56:15;;;;;;;43.22;5.85;;;;;;;;;;5054487;28;20082;-62
2021/12/16 07:58:42;;;;;;;60.37;6.10;;;;;;;;;;5059595;28;20131;-62
2021/12/16 08:01:09;;;;;;;49.97;5.57;;;;;;;;;;5061203;28;20131;-62
2021/12/16 08:03:36;;;;;;;50.65;6.35;;;;;;;;;;5057785;28;20077;-62
2021/12/16 08:06:05;;;;;;;56.03;7.78;;;;;;;;;;5062269;28;20135;-62
2021/12/16 08:08:39;;;;;;;52.33;6.22;;;;;;;;;;5056713;28;20091;-62
2021/12/16 08:11:06;;;;;;;51.05;7.32;;;;;;;;;;5055912;28;20127;-62
2021/12/16 08:13:33;;;;;;;46.50;6.03;;;;;;;;;;5060258;28;20140;-62
2021/12/16 08:16:01;;;;;;;51.17;5.80;;;;;;;;;;5053427;28;20076;-62
2021/12/16 08:18:28;;;;;;;49.05;7.07;;;;;;;;;;5057827;28;20135;-62
2021/12/16 08:20:55;;;;;;;48.20;6.78;;;;;;;;;;5056016;28;20048;-62
2021/12/16 08:23:22;;;;;;;42.83;5.88;;;;;;;;;;5053312;28;20499;-62
2021/12/16 08:25:48;;;;;;;45.13;6.90;;;;;;;;;;5055113;28;20124;-62
2021/12/16 08:28:14;;;;;;;51.78;6.28;;;;;;;;;;5056988;28;20168;-62
2021/12/16 08:30:43;;;;;;;49.83;5.95;;;;;;;;;;5058953;28;20061;-62
2021/12/16 08:33:11;;;;;;;41.13;5.45;;;;;;;;;;5058096;28;20077;-62
2021/12/16 08:35:40;;;;;;;56.60;7.85;;;;;;;;;;5058555;28;20504;-62
2021/12/16 08:38:08;;;;;;;53.30;5.80;;;;;;;;;;5058554;28;20536;-62
2021/12/16 08:40:35;;;;;;;49.72;6.80;;;;;;;;;;5060589;28;20084;-62
2021/12/16 08:43:02;;;;;;;51.77;6.37;;;;;;;;;;5061456;28;20588;-62
2021/12/16 08:45:31;;;;;;;52.95;6.25;;;;;;;;;;5059566;28;20284;-62
2021/12/16 08:47:58;;;;;;;44.35;5.63;;;;;;;;;;5056614;28;20083;-62
2021/12/16 08:50:27;;;;;;;44.53;6.00;;;;;;;;;;5061105;28;20048;-62
2021/12/16 08:53:01;;;;;;;42.90;6.63;;;;;;;;;;5053114;28;20084;-62
2021/12/16 08:55:29;;;;;;;34.65;5.32;;;;;;;;;;5054299;28;20467;-62
2021/12/16 08:57:56;;;;;;;47.63;5.85;;;;;;;;;;5057170;28;20136;-63
2021/12/16 09:00:27;;;;;;;38.83;5.90;;;;;;;;;;5054321;28;20091;-62
2021/12/16 09:02:54;;;;;;;47.60;5.85;;;;;;;;;;5056070;28;20140;-62
2021/12/16 09:05:21;;;;;;;47.70;6.83;;;;;;;;;;5058418;28;20091;-61
2021/12/16 09:07:48;;;;;;;55.90;6.78;;;;;;;;;;5060081;28;20075;-62
2021/12/16 09:10:20;;;;;;;40.28;5.47;;;;;;;;;;5060435;28;20143;-62
2021/12/16 09:13:09;;;;;;;53.00;8.07;;;;;;;;;;5057112;28;20135;-62
2021/12/16 09:15:44;;;;;;;57.22;6.80;;;;;;;;;;5055571;28;20640;-62
2021/12/16 09:18:11;;;;;;;41.17;7.22;;;;;;;;;;5057825;28;20131;-62
2021/12/16 09:20:38;;;;;;;;;;;;;;;;;;5057352;28;20666;-61
2021/12/16 09:23:05;;;;;;;45.80;8.55;;;;;;;;;;5059189;28;19921;-62
2021/12/16 09:25:32;;;;;;;45.97;9.30;;;;;;;;;;5056323;28;20095;-62
2021/12/16 09:28:00;;;;;;;31.95;5.93;;;;;;;;;;5062023;28;20219;-62
2021/12/16 09:30:27;;;;;;;44.22;6.35;;;;;;;;;;5063178;28;20135;-63
2021/12/16 09:32:57;;;;;;;38.15;6.05;;;;;;;;;;5054622;28;20140;-63
2021/12/16 09:35:33;;;;;;;52.25;6.32;;;;;;;;;;5060782;28;20076;-62
2021/12/16 09:38:00;;;;;;;36.92;5.40;;;;;;;;;;5064593;28;20498;-62
2021/12/16 09:40:27;;;;;;;;;;;;;;;;;;5076259;28;20071;-62
2021/12/16 09:42:54;;;;;;;45.45;6.57;;;;;;;;;;5073628;28;19924;-62
2021/12/16 09:45:21;;;;;;;38.53;5.82;;;;;;;;;;5078543;28;20091;-62
2021/12/16 09:47:49;;;;;;;36.40;5.07;;;;;;;;;;5083959;28;20052;-62
2021/12/16 09:50:20;;;;;;;38.25;5.22;;;;;;;;;;5085972;28;20132;-62
2021/12/16 09:52:46;;;;;;;49.83;5.90;;;;;;;;;;5078988;28;20049;-62
2021/12/16 09:55:12;;;;;;;33.85;5.85;;;;;;;;;;5081432;28;20167;-62
2021/12/16 09:57:39;;;;;;;39.30;6.55;;;;;;;;;;5080600;28;20067;-62
2021/12/16 10:00:07;;;;;;;40.35;5.72;;;;;;;;;;5084562;28;20136;-62
2021/12/16 10:02:34;;;;;;;;;;;;;;;;;;5080628;28;20045;-62
2021/12/16 10:05:01;;;;;;;44.20;6.15;;;;;;;;;;5086318;28;20526;-62
2021/12/16 10:07:32;;;;;;;35.58;6.50;;;;;;;;;;5081317;28;20466;-62
2021/12/16 10:10:08;;;;;;;43.47;5.85;;;;;;;;;;5063853;28;20048;-62
2021/12/16 10:12:44;;;;;;;34.45;5.22;;;;;;;;;;5083817;28;20087;-62
2021/12/16 10:18:17;;;;;;;41.90;5.60;;;;;;;;;;5083694;28;20079;-62
2021/12/16 10:20:48;;;;;;;36.05;5.10;;;;;;;;;;5078182;28;20083;-61
2021/12/16 10:23:20;;;;;;;41.42;5.40;;;;;;;;;;5083583;28;20048;-62
2021/12/16 10:25:54;;;;;;;41.55;5.78;;;;;;;;;;5082488;28;20126;-62
2021/12/16 10:28:23;;;;;;;36.55;5.68;;;;;;;;;;5074341;28;20711;-62
2021/12/16 10:30:53;;;;;;;41.53;6.72;;;;;;;;;;5079450;28;20052;-62
2021/12/16 10:33:30;;;;;;;32.35;5.88;;;;;;;;;;5083022;28;20131;-62
2021/12/16 10:36:07;;;;;;;30.88;5.95;;;;;;;;;;5085079;28;20135;-62
2021/12/16 10:38:36;;;;;;;48.30;6.25;;;;;;;;;;5082341;28;20143;-62
2021/12/16 10:41:03;;;;;;;43.47;5.35;;;;;;;;;;5077407;28;20087;-62
2021/12/16 10:43:29;;;;;;;43.97;5.63;;;;;;;;;;5078450;28;20076;-62
2021/12/16 10:45:56;;;;;;;45.20;6.28;;;;;;;;;;5082158;28;20131;-62
2021/12/16 10:48:24;;;;;;;24.58;4.10;;;;;;;;;;5079848;28;20076;-62
2021/12/16 10:50:59;;;;;;;30.13;4.72;;;;;;;;;;5080946;28;20465;-62
2021/12/16 10:53:44;;;;;;;36.60;5.13;;;;;;;;;;5081083;28;20072;-62
2021/12/16 10:56:11;;;;;;;36.22;5.60;;;;;;;;;;5079554;28;20143;-62
2021/12/16 10:58:46;;;;;;;33.97;5.53;;;;;;;;;;5082326;28;20139;-62
2021/12/16 11:01:30;;;;;;;30.52;5.03;;;;;;;;;;5082444;28;20339;-62
2021/12/16 11:04:06;;;;;;;33.22;4.90;;;;;;;;;;5081616;28;20072;-62
2021/12/16 11:06:38;;;;;;;35.85;5.20;;;;;;;;;;5079049;28;20144;-62
2021/12/16 11:09:24;;;;;;;40.25;5.80;;;;;;;;;;5076254;28;20171;-62
2021/12/16 11:12:04;;;;;;;39.63;5.20;;;;;;;;;;5082718;28;20139;-62
2021/12/16 11:14:31;;;;;;;23.73;5.60;;;;;;;;;;5080438;28;20143;-62
2021/12/16 11:16:58;;;;;;;37.40;5.35;;;;;;;;;;5076900;28;20072;-62
2021/12/16 11:19:24;;;;;;;;;;;;;;;;;;5079753;28;20131;-62
2021/12/16 11:22:01;;;;;;;39.25;4.57;;;;;;;;;;5084174;28;20011;-62
2021/12/16 11:24:28;;;;;;;27.52;4.47;;;;;;;;;;5083420;28;20131;-62
2021/12/16 11:26:55;;;;;;;22.08;4.68;;;;;;;;;;5079164;28;20055;-62
2021/12/16 11:29:27;;;;;;;27.27;4.47;;;;;;;;;;5081375;28;20076;-62
2021/12/16 11:31:56;;;;;;;26.33;4.57;;;;;;;;;;5084972;28;20334;-62
2021/12/16 11:34:24;;;;;;;30.80;5.30;;;;;;;;;;5080025;28;20079;-63
2021/12/16 11:36:54;;;;;;;22.30;4.05;;;;;;;;;;5074312;28;20068;-63
2021/12/16 11:39:22;;;;;;;29.25;4.78;;;;;;;;;;5055871;28;20087;-62
2021/12/16 11:41:53;;;;;;;27.15;5.07;;;;;;;;;;5061047;28;20060;-62
2021/12/16 11:44:24;;;;;;;32.80;5.28;;;;;;;;;;5052897;28;20073;-62
2021/12/16 11:46:57;;;;;;;44.33;5.72;;;;;;;;;;5059117;28;20136;-62
2021/12/16 11:49:26;;;;;;;34.33;4.65;;;;;;;;;;5059354;28;20084;-62
2021/12/16 11:51:54;;;;;;;26.73;4.47;;;;;;;;;;5060033;28;20587;-62
2021/12/16 11:54:23;;;;;;;29.90;4.97;;;;;;;;;;5059162;28;20099;-62
2021/12/16 11:57:04;;;;;;;25.90;3.75;;;;;;;;;;5056568;28;20144;-62
2021/12/16 11:59:37;;;;;;;38.35;4.22;;;;;;;;;;5058860;28;20139;-62
2021/12/16 12:02:06;;;;;;;26.20;4.38;;;;;;;;;;5055088;28;20126;-63
2021/12/16 12:04:35;;;;;;;29.80;4.22;;;;;;;;;;5054547;28;20135;-62
2021/12/16 12:07:08;;;;;;;31.67;4.15;;;;;;;;;;5054037;28;20045;-62
2021/12/16 12:09:37;;;;;;;22.73;4.07;;;;;;;;;;5055259;28;20076;-62
2021/12/16 12:12:04;;;;;;;41.92;4.90;;;;;;;;;;5055394;28;20590;-62
2021/12/16 12:14:34;;;;;;;27.33;5.18;;;;;;;;;;5055255;28;20520;-62
2021/12/16 12:17:12;;;;;;;23.38;3.83;;;;;;;;;;5056666;28;20051;-62
2021/12/16 12:19:44;;;;;;;27.67;4.55;;;;;;;;;;5059190;28;20471;-62
2021/12/16 12:22:11;;;;;;;24.80;4.15;;;;;;;;;;5061273;28;20079;-62
2021/12/16 12:24:39;;;;;;;26.75;4.13;;;;;;;;;;5061708;28;20135;-62
2021/12/16 12:27:13;;;;;;;29.73;4.13;;;;;;;;;;5045412;28;20136;-62
2021/12/16 12:29:42;;;;;;;23.08;3.55;;;;;;;;;;5057374;28;20139;-63
2021/12/16 12:32:11;;;;;;;19.60;3.25;;;;;;;;;;5062574;28;20127;-63
2021/12/16 12:34:39;;;;;;;25.13;4.20;;;;;;;;;;5062114;28;20057;-62
2021/12/16 12:37:18;;;;;;;23.13;3.72;;;;;;;;;;5062413;28;20065;-62
2021/12/16 12:39:47;;;;;;;32.70;4.40;;;;;;;;;;5061082;28;20143;-62
2021/12/16 12:42:14;;;;;;;29.83;4.10;;;;;;;;;;5061319;28;20554;-62
2021/12/16 12:44:41;;;;;;;28.90;3.75;;;;;;;;;;5062131;28;20572;-63
2021/12/16 12:47:10;;;;;;;20.52;3.78;;;;;;;;;;5058323;28;20190;-63
2021/12/16 12:49:40;;;;;;;33.88;4.22;;;;;;;;;;5059277;28;20086;-63
2021/12/16 12:52:09;;;;;;;21.67;3.63;;;;;;;;;;5055909;28;20077;-63
2021/12/16 12:54:36;;;;;;;18.95;4.32;;;;;;;;;;5058239;28;20149;-63
2021/12/16 12:57:21;;;;;;;22.42;4.63;;;;;;;;;;5057803;28;20127;-63
2021/12/16 12:59:47;;;;;;;28.17;5.85;;;;;;;;;;5061895;28;20608;-62
2021/12/16 13:02:19;;;;;;;28.83;4.00;;;;;;;;;;5060745;28;20085;-62
2021/12/16 13:04:52;;;;;;;27.70;4.82;;;;;;;;;;5057249;28;20056;-63
2021/12/16 13:07:46;;;;;;;26.50;4.38;;;;;;;;;;5065427;28;20071;-62
2021/12/16 13:10:15;;;;;;;28.42;3.83;;;;;;;;;;5059191;28;20081;-63
2021/12/16 13:12:52;;;;;;;20.90;3.92;;;;;;;;;;5060276;28;20139;-62
2021/12/16 13:15:29;;;;;;;22.30;4.18;;;;;;;;;;5056433;28;20048;-63
2021/12/16 13:28:41;;;;;;;28.27;4.35;;;;;;;;;;5060198;28;20136;-63
2021/12/16 13:31:30;;;;;;;29.15;4.32;;;;;;;;;;5058017;28;20717;-63
2021/12/16 13:33:59;;;;;;;23.17;3.75;;;;;;;;;;5056900;28;20051;-63
2021/12/16 13:36:45;;;;;;;26.10;4.07;;;;;;;;;;5058221;28;20139;-63
2021/12/16 13:39:13;;;;;;;24.33;3.95;;;;;;;;;;5057419;28;20321;-63
2021/12/16 13:41:53;;;;;;;25.38;3.70;;;;;;;;;;5057795;28;20132;-63
2021/12/16 13:44:33;;;;;;;19.73;3.15;;;;;;;;;;5059343;28;20076;-63
2021/12/16 13:47:17;;;;;;;24.65;4.43;;;;;;;;;;5058995;28;20053;-63
2021/12/16 14:01:37;;;;;;;26.40;3.90;;;;;;;;;;5057063;28;20123;-63
2021/12/16 14:04:39;;;;;;;27.70;4.80;;;;;;;;;;5058246;28;20183;-63
2021/12/16 14:10:06;;;;;;;22.50;4.15;;;;;;;;;;5062174;28;20102;-63
2021/12/16 14:15:28;;;;;;;26.48;4.45;;;;;;;;;;5063919;28;20575;-63
2021/12/16 14:23:24;;;;;;;27.02;4.35;;;;;;;;;;5060973;28;20432;-63
2021/12/16 14:26:15;;;;;;;;;;;;;;;;;;5063553;28;20084;-63
2021/12/16 14:42:44;;;;;;;25.30;4.85;;;;;;;;;;5063986;28;20041;-63
2021/12/16 14:45:25;;;;;;;35.92;4.88;;;;;;;;;;5061594;28;20135;-63
2021/12/16 14:50:36;;;;;;;23.52;4.10;;;;;;;;;;5058995;28;20048;-63
2021/12/16 14:53:12;;;;;;;25.08;4.03;;;;;;;;;;5060555;28;20140;-62
2021/12/16 14:55:39;;;;;;;28.13;5.05;;;;;;;;;;5059212;28;20049;-63
2021/12/16 14:58:06;;;;;;;;;;;;;;;;;;5056790;28;20132;-63
2021/12/16 15:00:38;;;;;;;37.80;5.53;;;;;;;;;;5059082;28;19974;-62
2021/12/16 15:03:09;;;;;;;38.53;5.03;;;;;;;;;;5054747;28;20045;-62
2021/12/16 15:05:46;;;;;;;31.83;4.32;;;;;;;;;;5062482;28;20052;-63
2021/12/16 15:08:14;;;;;;;27.40;4.50;;;;;;;;;;5061418;28;20088;-61
2021/12/16 15:10:42;;;;;;;33.97;4.07;;;;;;;;;;5059649;28;20064;-63
2021/12/16 15:13:22;;;;;;;31.65;4.25;;;;;;;;;;5061653;28;20135;-63
2021/12/16 15:36:29;;;;;;;27.00;4.57;;;;;;;;;;5080670;28;20531;-62
2021/12/16 15:39:06;;;;;;;41.10;6.10;;;;;;;;;;5080244;28;20059;-62
2021/12/16 15:44:17;;;;;;;38.95;4.70;;;;;;;;;;5071100;28;20058;-62
2021/12/16 15:46:44;;;;;;;33.17;4.72;;;;;;;;;;5078795;28;20151;-62
2021/12/16 15:49:11;;;;;;;;;;;;;;;;;;5075817;28;20072;-63
2021/12/16 15:51:49;;;;;;;36.67;4.70;;;;;;;;;;5074665;28;20403;-63
2021/12/16 15:54:21;;;;;;;34.33;5.13;;;;;;;;;;5077411;28;20049;-62
2021/12/16 15:56:49;;;;;;;37.70;5.15;;;;;;;;;;5077137;28;20496;-62
2021/12/16 15:59:20;;;;;;;45.58;5.78;;;;;;;;;;5079479;28;20090;-62
2021/12/16 16:01:51;;;;;;;46.08;5.60;;;;;;;;;;5080359;28;20603;-63
2021/12/16 16:04:26;;;;;;;42.10;5.30;;;;;;;;;;5055387;28;20617;-62
2021/12/16 16:07:04;;;;;;;35.95;5.60;;;;;;;;;;5043864;28;20280;-62
2021/12/16 16:09:36;;;;;;;29.17;4.38;;;;;;;;;;5061747;28;20080;-62
2021/12/16 16:12:03;;;;;;;35.38;5.07;;;;;;;;;;5062003;28;20073;-62
2021/12/16 16:14:32;;;;;;;37.43;5.63;;;;;;;;;;5055796;28;20164;-62
2021/12/16 16:17:05;;;;;;;42.50;5.20;;;;;;;;;;5060556;28;20076;-62
2021/12/16 16:19:34;;;;;;;31.13;5.47;;;;;;;;;;5059860;28;20139;-62
2021/12/16 16:22:03;;;;;;;31.38;4.85;;;;;;;;;;5064384;28;20592;-62
2021/12/16 16:24:34;;;;;;;53.72;6.80;;;;;;;;;;5061472;28;20127;-63
2021/12/16 16:27:02;;;;;;;46.65;5.70;;;;;;;;;;5060487;28;20144;-62
2021/12/16 16:29:31;;;;;;;40.88;5.20;;;;;;;;;;5058927;28;20098;-63
2021/12/16 16:31:59;;;;;;;36.85;4.97;;;;;;;;;;5054576;28;20087;-62
2021/12/16 16:34:29;;;;;;;37.55;4.88;;;;;;;;;;5057266;28;20135;-62
2021/12/16 16:36:57;;;;;;;48.65;5.32;;;;;;;;;;5059879;27;20147;-62
2021/12/16 16:39:30;;;;;;;37.80;4.65;;;;;;;;;;5054058;28;20520;-62
2021/12/16 16:41:59;;;;;;;42.05;5.43;;;;;;;;;;5059768;28;20132;-63
2021/12/16 16:44:26;;;;;;;35.63;5.70;;;;;;;;;;5052914;28;20131;-63
2021/12/16 16:47:03;;;;;;;;;;;;;;;;;;5081458;28;20117;-62
2021/12/16 16:49:32;;;;;;;38.88;5.25;;;;;;;;;;5076396;28;19928;-62
2021/12/16 16:52:09;;;;;;;38.45;5.72;;;;;;;;;;5057722;28;20140;-62
2021/12/16 16:54:40;;;;;;;56.17;6.20;;;;;;;;;;5053704;28;20072;-62
2021/12/16 16:57:21;;;;;;;46.05;5.55;;;;;;;;;;5063990;28;20135;-62
2021/12/16 16:59:54;;;;;;;40.85;6.25;;;;;;;;;;5063128;28;20148;-63
2021/12/16 17:02:24;;;;;;;45.13;6.68;;;;;;;;;;5061484;28;20135;-62
2021/12/16 17:05:03;;;;;;;36.90;6.45;;;;;;;;;;5084221;28;20072;-62
2021/12/16 17:07:52;;;;;;;39.65;6.10;;;;;;;;;;5060855;28;20427;-62
2021/12/16 17:10:21;;;;;;;51.20;9.00;;;;;;;;;;5060910;28;20084;-62
2021/12/16 17:13:00;;;;;;;45.78;7.07;;;;;;;;;;5060065;28;20180;-62
2021/12/16 17:17:12;;;;;;;47.67;5.70;;;;;;;;;;5062913;28;20080;-62
2021/12/16 17:18:21;;;;;;;39.35;5.53;;;;;;;;;;5077720;28;20559;-62
2021/12/16 17:20:48;;;;;;;53.67;7.25;;;;;;;;;;5083254;28;20048;-62
2021/12/16 17:23:15;;;;;;;39.80;6.07;;;;;;;;;;5079665;28;20075;-62
2021/12/16 17:25:43;;;;;;;34.33;5.53;;;;;;;;;;5079023;28;20055;-62
2021/12/16 17:28:11;;;;;;;46.80;7.20;;;;;;;;;;5067620;28;20102;-62
2021/12/16 17:30:41;;;;;;;41.90;6.10;;;;;;;;;;5075215;28;20128;-62
2021/12/16 17:33:21;;;;;;;44.78;5.75;;;;;;;;;;5086033;28;20762;-62
2021/12/16 17:35:49;;;;;;;42.67;5.78;;;;;;;;;;5084660;28;20048;-62
2021/12/16 17:38:24;;;;;;;33.45;6.30;;;;;;;;;;5079923;28;20084;-62
2021/12/16 17:40:54;;;;;;;46.72;6.30;;;;;;;;;;5081970;28;20080;-62
2021/12/16 17:43:26;;;;;;;43.75;6.25;;;;;;;;;;5077751;28;20136;-62
2021/12/16 17:45:52;;;;;;;50.85;6.05;;;;;;;;;;5081754;28;20052;-62
2021/12/16 17:48:21;;;;;;;45.42;7.63;;;;;;;;;;5082604;28;20105;-62
2021/12/16 17:50:51;;;;;;;50.63;5.65;;;;;;;;;;5076924;28;20059;-62
2021/12/16 17:53:18;;;;;;;53.85;8.43;;;;;;;;;;5081869;28;20040;-63
2021/12/16 17:55:48;;;;;;;52.92;7.05;;;;;;;;;;5078766;28;20049;-62
2021/12/16 17:58:17;;;;;;;43.42;6.57;;;;;;;;;;5079900;28;20044;-62
2021/12/16 18:00:55;;;;;;;59.45;8.65;;;;;;;;;;5080157;28;20590;-62
2021/12/16 18:03:30;;;;;;;51.72;7.03;;;;;;;;;;5079690;28;20138;-62
2021/12/16 18:05:59;;;;;;;49.00;6.10;;;;;;;;;;5078430;28;20082;-63
2021/12/16 18:08:37;;;;;;;45.28;7.18;;;;;;;;;;5076967;28;20692;-63
2021/12/16 18:11:09;;;;;;;42.90;6.90;;;;;;;;;;5078001;28;20170;-62
2021/12/16 18:13:38;;;;;;;47.17;6.10;;;;;;;;;;5084085;28;20071;-62
2021/12/16 18:16:06;;;;;;;59.60;7.90;;;;;;;;;;5068095;28;20167;-62
2021/12/16 18:18:32;;;;;;;36.92;5.70;;;;;;;;;;5082653;28;20119;-62
2021/12/16 18:21:01;;;;;;;46.78;6.15;;;;;;;;;;5079226;28;20048;-62
2021/12/16 18:23:28;;;;;;;47.33;6.27;;;;;;;;;;5076425;28;20082;-62
2021/12/16 18:25:57;;;;;;;61.50;8.73;;;;;;;;;;5078819;28;20325;-62
2021/12/16 18:28:32;;;;;;;51.85;8.20;;;;;;;;;;5080160;28;20494;-63
2021/12/16 18:31:05;;;;;;;42.30;6.65;;;;;;;;;;5079787;28;20083;-62
2021/12/16 18:33:37;;;;;;;44.40;6.50;;;;;;;;;;5082901;28;20146;-62
2021/12/16 18:36:26;;;;;;;40.15;5.93;;;;;;;;;;5083459;28;20048;-62
2021/12/16 18:38:54;;;;;;;54.42;6.88;;;;;;;;;;5080001;28;20139;-62